createdAt,value
2023-03-25T00:01:08.468Z,37.63
2023-03-25T00:03:33.304Z,33.62
2023-03-25T00:05:59.653Z,34.22
2023-03-25T00:08:27.759Z,33.12
2023-03-25T00:10:58.583Z,35.27
2023-03-25T00:13:25.352Z,35.90
2023-03-25T00:15:55.426Z,38.60
2023-03-25T00:18:22.551Z,42.80
2023-03-25T00:22:10.345Z,45.10
2023-03-25T00:24:36.656Z,42.48
2023-03-25T00:27:03.847Z,45.70
2023-03-25T00:29:29.780Z,43.57
2023-03-25T00:31:56.255Z,45.98
2023-03-25T00:34:22.483Z,43.73
2023-03-25T00:36:47.710Z,48.67
2023-03-25T00:39:19.038Z,46.95
2023-03-25T00:41:54.814Z,48.43
2023-03-25T00:44:22.883Z,43.78
2023-03-25T00:46:48.876Z,46.40
2023-03-25T00:49:14.179Z,44.57
2023-03-25T00:51:52.208Z,42.57
2023-03-25T00:54:10.568Z,42.10
2023-03-25T00:56:37.814Z,39.52
2023-03-25T00:59:02.131Z,37.98
2023-03-25T01:01:31.334Z,39.83
2023-03-25T01:03:57.325Z,38.08
2023-03-25T01:06:29.765Z,35.72
2023-03-25T01:08:59.238Z,36.03
2023-03-25T01:11:29.908Z,34.30
2023-03-25T01:13:56.461Z,32.77
2023-03-25T01:16:22.369Z,31.18
2023-03-25T01:18:48.195Z,32.63
2023-03-25T01:21:13.561Z,31.47
2023-03-25T01:23:39.388Z,26.17
2023-03-25T01:26:25.150Z,23.63
2023-03-25T01:28:49.736Z,21.27
2023-03-25T01:31:15.842Z,22.83
2023-03-25T01:34:49.390Z,25.52
2023-03-25T01:37:16.425Z,21.28
2023-03-25T01:39:42.312Z,18.78
2023-03-25T01:42:13.577Z,14.35
2023-03-25T01:44:48.015Z,13.95
2023-03-25T01:47:12.239Z,11.43
2023-03-25T01:49:46.993Z,11.45
2023-03-25T01:52:21.059Z,12.13
2023-03-25T01:54:51.626Z,11.17
2023-03-25T01:57:22.919Z,12.10
2023-03-25T01:59:52.423Z,10.83
2023-03-25T02:02:19.910Z,11.30
2023-03-25T02:04:59.552Z,12.65
2023-03-25T02:07:33.088Z,10.88
2023-03-25T02:10:04.359Z,12.08
2023-03-25T02:12:32.620Z,12.02
2023-03-25T02:17:51.191Z,11.37
2023-03-25T02:21:02.674Z,10.42
2023-03-25T02:23:41.698Z,12.45
2023-03-25T02:26:59.348Z,11.07
2023-03-25T02:30:02.503Z,13.33
2023-03-25T02:34:49.352Z,11.35
2023-03-25T02:38:14.142Z,11.78
2023-03-25T02:42:32.908Z,13.23
2023-03-25T02:45:22.485Z,14.37
2023-03-25T02:49:17.799Z,13.85
2023-03-25T02:52:16.336Z,14.40
2023-03-25T02:54:47.393Z,14.40
2023-03-25T02:57:19.453Z,11.93
2023-03-25T02:59:49.036Z,11.10
2023-03-25T03:02:16.236Z,12.00
2023-03-25T03:06:11.346Z,12.12
2023-03-25T03:08:52.164Z,14.75
2023-03-25T03:11:47.599Z,14.03
2023-03-25T03:14:21.312Z,13.23
2023-03-25T03:17:32.362Z,13.38
2023-03-25T03:20:51.997Z,12.37
2023-03-25T03:23:38.611Z,13.23
2023-03-25T03:24:52.905Z,13.05
2023-03-25T03:27:36.566Z,12.93
2023-03-25T03:28:49.342Z,13.67
2023-03-25T03:32:54.198Z,13.03
2023-03-25T03:35:40.943Z,15.78
2023-03-25T03:36:53.515Z,14.18
2023-03-25T03:39:38.066Z,13.80
2023-03-25T03:42:18.968Z,13.55
2023-03-25T03:45:04.531Z,13.30
2023-03-25T03:47:37.559Z,13.42
2023-03-25T03:50:09.916Z,13.67
2023-03-25T03:52:42.425Z,15.50
2023-03-25T03:55:21.605Z,14.08
2023-03-25T03:59:23.064Z,17.83
2023-03-25T04:01:56.094Z,14.40
2023-03-25T04:04:29.256Z,13.08
2023-03-25T04:05:39.238Z,13.60
2023-03-25T04:08:18.682Z,14.62
2023-03-25T04:11:14.011Z,14.47
2023-03-25T04:13:58.462Z,13.03
2023-03-25T04:15:09.613Z,13.38
2023-03-25T04:17:35.084Z,13.58
2023-03-25T04:20:05.507Z,15.25
2023-03-25T04:22:30.741Z,13.83
2023-03-25T04:23:42.726Z,14.10
2023-03-25T04:26:33.396Z,14.95
2023-03-25T04:29:02.450Z,14.82
2023-03-25T04:31:33.595Z,13.22
2023-03-25T04:34:00.371Z,15.08
2023-03-25T04:37:36.522Z,13.13
2023-03-25T04:40:02.016Z,13.10
2023-03-25T04:42:33.529Z,13.32
2023-03-25T04:45:00.372Z,15.10
2023-03-25T04:47:28.993Z,14.23
2023-03-25T04:49:57.365Z,15.40
2023-03-25T04:52:25.915Z,15.73
2023-03-25T04:54:53.374Z,15.07
2023-03-25T04:57:19.759Z,15.33
2023-03-25T04:59:45.545Z,14.45
2023-03-25T05:02:13.013Z,15.37
2023-03-25T05:04:47.626Z,14.72
2023-03-25T05:07:13.339Z,14.48
2023-03-25T05:08:22.843Z,15.80
2023-03-25T05:10:47.636Z,18.47
2023-03-25T05:13:13.066Z,15.15
2023-03-25T05:15:39.149Z,15.05
2023-03-25T05:18:13.097Z,56.83
2023-03-25T05:20:39.514Z,24.50
2023-03-25T05:23:05.447Z,15.77
2023-03-25T05:25:32.255Z,14.77
2023-03-25T05:26:42.513Z,18.73
2023-03-25T05:29:10.637Z,15.13
2023-03-25T05:31:36.927Z,14.82
2023-03-25T05:34:09.253Z,14.18
2023-03-25T05:36:33.873Z,14.83
2023-03-25T05:37:44.003Z,16.18
2023-03-25T05:38:54.461Z,14.70
2023-03-25T05:41:23.402Z,15.10
2023-03-25T05:43:51.555Z,14.43
2023-03-25T05:46:19.606Z,17.30
2023-03-25T05:49:06.500Z,15.60
2023-03-25T05:51:38.851Z,14.53
2023-03-25T05:54:10.431Z,15.08
2023-03-25T05:56:37.889Z,15.68
2023-03-25T05:59:03.724Z,14.18
2023-03-25T06:01:34.379Z,14.83
2023-03-25T06:04:01.554Z,17.08
2023-03-25T06:06:33.290Z,17.20
2023-03-25T06:07:54.826Z,17.08
2023-03-25T06:10:19.218Z,14.82
2023-03-25T06:11:27.788Z,15.63
2023-03-25T06:13:54.507Z,16.63
2023-03-25T06:16:21.828Z,18.42
2023-03-25T06:18:51.011Z,19.45
2023-03-25T06:21:22.265Z,23.23
2023-03-25T06:23:49.902Z,26.75
2023-03-25T06:25:01.249Z,28.20
2023-03-25T06:27:30.696Z,34.10
2023-03-25T06:28:40.209Z,34.35
2023-03-25T06:31:06.923Z,42.18
2023-03-25T06:32:16.229Z,44.68
2023-03-25T06:34:42.941Z,50.85
2023-03-25T06:37:09.483Z,53.12
2023-03-25T06:39:35.993Z,50.28
2023-03-25T06:42:04.336Z,47.03
2023-03-25T06:43:58.045Z,45.58
2023-03-25T06:47:15.822Z,37.40
2023-03-25T06:48:27.170Z,33.68
2023-03-25T06:50:51.269Z,34.52
2023-03-25T06:52:00.893Z,31.55
2023-03-25T06:53:12.048Z,30.25
2023-03-25T06:55:58.427Z,30.30
2023-03-25T06:57:07.422Z,27.10
2023-03-25T06:59:34.012Z,25.43
2023-03-25T07:02:00.177Z,27.00
2023-03-25T07:04:26.640Z,30.00
2023-03-25T07:06:51.546Z,29.23
2023-03-25T07:09:16.871Z,29.62
2023-03-25T07:11:43.911Z,29.80
2023-03-25T07:14:08.907Z,23.75
2023-03-25T07:16:34.051Z,26.10
2023-03-25T07:18:58.987Z,29.42
2023-03-25T07:20:11.468Z,24.97
2023-03-25T07:22:41.370Z,26.75
2023-03-25T07:23:51.944Z,27.40
2023-03-25T07:26:16.652Z,27.45
2023-03-25T07:28:41.837Z,28.53
2023-03-25T07:29:51.060Z,29.80
2023-03-25T07:32:18.416Z,29.05
2023-03-25T07:34:45.418Z,29.32
2023-03-25T07:35:55.527Z,28.60
2023-03-25T07:38:24.361Z,28.53
2023-03-25T07:40:50.184Z,31.10
2023-03-25T07:43:15.303Z,27.52
2023-03-25T07:45:43.418Z,26.27
2023-03-25T07:48:09.288Z,27.93
2023-03-25T07:50:33.337Z,31.13
2023-03-25T07:52:59.255Z,22.00
2023-03-25T07:55:23.412Z,21.53
2023-03-25T07:57:48.467Z,21.95
2023-03-25T08:00:15.186Z,20.95
2023-03-25T08:02:41.261Z,19.28
2023-03-25T08:03:50.434Z,19.03
2023-03-25T08:05:02.124Z,21.22
2023-03-25T08:07:29.047Z,19.52
2023-03-25T08:09:53.358Z,18.63
2023-03-25T08:12:17.950Z,20.22
2023-03-25T08:14:42.203Z,20.58
2023-03-25T08:17:07.124Z,19.93
2023-03-25T08:18:16.786Z,19.35
2023-03-25T08:20:41.486Z,22.35
2023-03-25T08:23:07.576Z,21.63
2023-03-25T08:26:44.801Z,25.70
2023-03-25T08:27:54.444Z,24.90
2023-03-25T08:30:19.998Z,23.00
2023-03-25T08:32:51.129Z,23.93
2023-03-25T08:36:39.134Z,22.30
2023-03-25T08:39:06.254Z,22.10
2023-03-25T08:41:37.998Z,23.25
2023-03-25T08:44:01.672Z,22.72
2023-03-25T08:46:28.596Z,18.95
2023-03-25T08:48:53.252Z,18.68
2023-03-25T08:51:18.812Z,20.15
2023-03-25T08:53:43.379Z,17.35
2023-03-25T08:56:11.338Z,20.40
2023-03-25T08:58:35.880Z,20.07
2023-03-25T09:01:00.788Z,18.88
2023-03-25T09:03:28.036Z,20.10
2023-03-25T09:05:54.144Z,18.45
2023-03-25T09:08:18.442Z,17.53
2023-03-25T09:09:29.887Z,16.20
2023-03-25T09:11:57.057Z,18.58
2023-03-25T09:15:31.733Z,18.20
2023-03-25T09:16:42.378Z,18.00
2023-03-25T09:17:54.247Z,17.00
2023-03-25T09:19:03.684Z,19.07
2023-03-25T09:21:29.772Z,16.18
2023-03-25T09:22:40.426Z,34.80
2023-03-25T09:24:58.245Z,17.38
2023-03-25T09:27:33.329Z,18.05
2023-03-25T09:30:07.417Z,15.93
2023-03-25T09:32:32.188Z,16.72
2023-03-25T09:33:42.645Z,15.60
2023-03-25T09:36:07.883Z,17.23
2023-03-25T09:38:32.351Z,14.68
2023-03-25T09:40:57.553Z,16.68
2023-03-25T09:43:53.971Z,15.88
2023-03-25T09:46:41.183Z,16.45
2023-03-25T09:49:25.468Z,17.38
2023-03-25T09:51:54.915Z,14.73
2023-03-25T09:54:35.231Z,15.32
2023-03-25T09:57:06.386Z,15.00
2023-03-25T09:59:49.883Z,15.17
2023-03-25T10:01:21.150Z,15.73
2023-03-25T10:04:10.046Z,16.00
2023-03-25T10:07:28.945Z,17.20
2023-03-25T10:10:35.112Z,15.18
2023-03-25T10:13:35.364Z,15.15
2023-03-25T10:16:25.572Z,16.08
2023-03-25T10:19:33.184Z,18.12
2023-03-25T10:20:55.795Z,17.32
2023-03-25T10:23:45.934Z,16.78
2023-03-25T10:26:27.748Z,16.70
2023-03-25T10:29:05.813Z,17.15
2023-03-25T10:31:52.917Z,14.97
2023-03-25T10:35:43.620Z,15.95
2023-03-25T10:38:24.156Z,21.32
2023-03-25T10:41:24.572Z,15.70
2023-03-25T10:44:13.336Z,14.90
2023-03-25T10:45:25.015Z,18.40
2023-03-25T10:47:58.582Z,15.77
2023-03-25T10:49:11.256Z,16.20
2023-03-25T10:51:37.106Z,15.32
2023-03-25T10:54:04.363Z,15.73
2023-03-25T10:56:38.835Z,15.63
2023-03-25T11:00:40.807Z,15.12
2023-03-25T11:03:12.089Z,14.95
2023-03-25T11:05:41.731Z,15.30
2023-03-25T11:06:59.495Z,25.05
2023-03-25T11:09:29.826Z,18.45
2023-03-25T11:11:55.757Z,16.40
2023-03-25T11:14:24.484Z,15.30
2023-03-25T11:16:59.842Z,15.97
2023-03-25T11:20:00.650Z,14.58
2023-03-25T11:21:13.120Z,14.98
2023-03-25T11:23:46.382Z,14.60
2023-03-25T11:25:02.147Z,15.13
2023-03-25T11:28:06.658Z,22.65
2023-03-25T11:30:41.934Z,16.65
2023-03-25T11:33:17.601Z,13.58
2023-03-25T11:37:01.342Z,14.42
2023-03-25T11:39:40.782Z,16.50
2023-03-25T11:42:23.145Z,14.37
2023-03-25T11:44:56.273Z,16.80
2023-03-25T11:47:37.996Z,15.10
2023-03-25T11:50:07.124Z,16.22
2023-03-25T11:52:50.889Z,17.03
2023-03-25T11:56:57.033Z,16.55
2023-03-25T11:59:41.806Z,16.60
2023-03-25T12:03:35.311Z,18.75
2023-03-25T12:06:22.557Z,16.75
2023-03-25T12:07:43.803Z,18.05
2023-03-25T12:10:23.092Z,17.00
2023-03-25T12:14:36.917Z,16.92
2023-03-25T12:17:24.995Z,19.45
2023-03-25T12:20:52.232Z,30.83
2023-03-25T12:23:42.123Z,17.12
2023-03-25T12:27:53.437Z,19.40
2023-03-25T12:32:22.277Z,17.37
2023-03-25T12:35:18.540Z,18.10
2023-03-25T12:36:49.677Z,18.30
2023-03-25T12:39:52.218Z,17.35
2023-03-25T12:43:06.873Z,18.95
2023-03-25T12:46:02.834Z,17.80
2023-03-25T12:47:21.012Z,17.20
2023-03-25T12:50:22.516Z,19.30
2023-03-25T12:53:24.145Z,18.15
2023-03-25T12:57:42.986Z,17.17
2023-03-25T13:02:09.580Z,18.20
2023-03-25T13:03:31.499Z,130.78
2023-03-25T13:06:34.373Z,26.23
2023-03-25T13:09:12.359Z,18.42
2023-03-25T13:11:59.581Z,18.15
2023-03-25T13:14:42.047Z,17.90
2023-03-25T13:17:17.025Z,18.75
2023-03-25T13:19:46.318Z,17.30
2023-03-25T13:21:13.769Z,16.13
2023-03-25T13:23:45.145Z,18.75
2023-03-25T13:24:58.551Z,17.75
2023-03-25T13:26:21.698Z,17.58
2023-03-25T13:30:23.857Z,21.00
2023-03-25T13:31:36.857Z,20.13
2023-03-25T13:34:18.421Z,19.40
2023-03-25T13:37:13.540Z,21.57
2023-03-25T13:40:18.487Z,21.63
2023-03-25T13:43:14.789Z,19.63
2023-03-25T13:45:52.313Z,19.70
2023-03-25T13:48:25.680Z,21.18
2023-03-25T13:50:58.431Z,20.85
2023-03-25T13:52:08.222Z,22.10
2023-03-25T13:54:53.012Z,21.42
2023-03-25T13:57:39.490Z,23.60
2023-03-25T14:00:30.577Z,19.70
2023-03-25T14:01:46.068Z,21.22
2023-03-25T14:04:44.035Z,21.00
2023-03-25T14:07:52.905Z,20.70
2023-03-25T14:11:00.461Z,20.52
2023-03-25T14:13:46.426Z,19.15
2023-03-25T14:16:21.509Z,20.58
2023-03-25T14:20:11.628Z,20.55
2023-03-25T14:21:24.354Z,19.07
2023-03-25T14:22:39.707Z,20.83
2023-03-25T14:25:37.315Z,19.80
2023-03-25T14:28:08.929Z,18.55
2023-03-25T14:30:37.748Z,19.95
2023-03-25T14:33:18.550Z,18.08
2023-03-25T14:35:47.886Z,18.25
2023-03-25T14:40:28.612Z,18.85
2023-03-25T14:43:29.108Z,18.18
2023-03-25T14:47:27.450Z,18.18
2023-03-25T14:50:23.528Z,19.05
2023-03-25T14:54:23.895Z,17.40
2023-03-25T14:57:18.818Z,18.00
2023-03-25T15:02:31.931Z,18.45
2023-03-25T15:05:19.793Z,22.03
2023-03-25T15:08:09.334Z,22.37
2023-03-25T15:10:40.510Z,19.85
2023-03-25T15:13:31.791Z,23.80
2023-03-25T15:17:45.926Z,42.07
2023-03-25T15:20:24.722Z,25.38
2023-03-25T15:23:21.213Z,27.10
2023-03-25T15:24:34.235Z,26.33
2023-03-25T15:27:22.196Z,26.57
2023-03-25T15:30:27.927Z,25.75
2023-03-25T15:33:19.206Z,25.90
2023-03-25T15:36:28.733Z,25.20
2023-03-25T15:39:24.779Z,29.00
2023-03-25T15:42:37.942Z,30.07
2023-03-25T15:45:24.914Z,30.37
2023-03-25T15:48:23.603Z,28.50
2023-03-25T15:49:41.756Z,26.10
2023-03-25T15:50:54.374Z,26.73
2023-03-25T15:53:56.195Z,30.88
2023-03-25T15:56:28.881Z,41.65
2023-03-25T15:59:10.420Z,44.20
2023-03-25T16:01:49.501Z,40.05
2023-03-25T16:04:33.775Z,40.48
2023-03-25T16:07:05.573Z,40.38
2023-03-25T16:09:49.781Z,47.05
2023-03-25T16:12:36.022Z,51.35
2023-03-25T16:15:05.495Z,46.50
2023-03-25T16:17:34.775Z,47.87
2023-03-25T16:20:04.878Z,46.58
2023-03-25T16:22:34.162Z,51.50
2023-03-25T16:25:06.045Z,54.05
2023-03-25T16:27:37.537Z,50.02
2023-03-25T16:30:02.111Z,63.17
2023-03-25T16:32:49.852Z,55.13
2023-03-25T16:34:00.503Z,57.20
2023-03-25T16:36:23.137Z,52.77
2023-03-25T16:38:49.370Z,53.13
2023-03-25T16:41:16.305Z,57.30
2023-03-25T16:42:30.605Z,60.75
2023-03-25T16:44:57.048Z,59.45
2023-03-25T16:46:08.445Z,59.72
2023-03-25T16:48:39.536Z,66.37
2023-03-25T16:49:53.244Z,64.83
2023-03-25T16:52:35.044Z,57.58
2023-03-25T16:55:04.888Z,63.63
2023-03-25T16:56:17.969Z,54.93
2023-03-25T17:00:20.458Z,55.00
2023-03-25T17:03:00.627Z,47.65
2023-03-25T17:05:29.699Z,52.05
2023-03-25T17:08:08.073Z,47.95
2023-03-25T17:12:14.179Z,48.70
2023-03-25T17:15:00.199Z,56.60
2023-03-25T17:17:49.169Z,44.05
2023-03-25T17:19:00.519Z,43.33
2023-03-25T17:20:18.219Z,46.82
2023-03-25T17:24:24.108Z,58.55
2023-03-25T17:27:38.293Z,55.28
2023-03-25T17:29:01.699Z,57.62
2023-03-25T17:31:38.461Z,57.23
2023-03-25T17:34:12.542Z,55.12
2023-03-25T17:36:46.578Z,50.52
2023-03-25T17:39:26.605Z,47.28
2023-03-25T17:41:59.857Z,40.02
2023-03-25T17:44:36.762Z,45.07
2023-03-25T17:47:09.761Z,44.10
2023-03-25T17:48:19.395Z,44.20
2023-03-25T17:50:52.105Z,48.10
2023-03-25T17:53:18.516Z,58.22
2023-03-25T17:55:44.336Z,60.57
2023-03-25T17:58:09.874Z,42.13
2023-03-25T18:00:37.907Z,41.35
2023-03-25T18:01:49.415Z,53.32
2023-03-25T18:04:21.330Z,52.90
2023-03-25T18:06:45.627Z,41.85
2023-03-25T18:09:21.226Z,44.13
2023-03-25T18:11:49.113Z,50.35
2023-03-25T18:14:13.263Z,37.00
2023-03-25T18:16:37.531Z,44.37
2023-03-25T18:19:01.773Z,51.35
2023-03-25T18:21:31.623Z,51.02
2023-03-25T18:23:56.497Z,49.15
2023-03-25T18:26:21.245Z,51.63
2023-03-25T18:28:48.969Z,44.78
2023-03-25T18:31:16.717Z,48.50
2023-03-25T18:32:25.410Z,53.73
2023-03-25T18:34:50.099Z,55.90
2023-03-25T18:37:14.821Z,54.32
2023-03-25T18:39:41.367Z,53.92
2023-03-25T18:42:06.569Z,54.75
2023-03-25T18:44:31.726Z,48.92
2023-03-25T18:46:57.046Z,59.93
2023-03-25T18:49:21.971Z,54.40
2023-03-25T18:51:52.408Z,57.20
2023-03-25T18:54:17.080Z,55.67
2023-03-25T18:56:44.121Z,62.55
2023-03-25T18:59:13.706Z,77.00
2023-03-25T19:01:46.753Z,51.05
2023-03-25T19:04:11.160Z,47.18
2023-03-25T19:06:38.885Z,53.95
2023-03-25T19:09:06.588Z,59.65
2023-03-25T19:11:36.880Z,47.53
2023-03-25T19:14:01.284Z,50.53
2023-03-25T19:16:27.070Z,51.87
2023-03-25T19:18:51.182Z,52.57
2023-03-25T19:21:18.766Z,59.58
2023-03-25T19:23:44.533Z,60.83
2023-03-25T19:24:54.030Z,55.28
2023-03-25T19:26:04.107Z,57.85
2023-03-25T19:28:29.047Z,60.03
2023-03-25T19:30:55.212Z,36.88
2023-03-25T19:33:20.801Z,33.05
2023-03-25T19:35:55.035Z,32.50
2023-03-25T19:38:39.586Z,29.47
2023-03-25T19:41:11.463Z,28.40
2023-03-25T19:43:37.223Z,32.57
2023-03-25T19:46:04.164Z,31.65
2023-03-25T19:47:13.171Z,30.35
2023-03-25T19:49:40.273Z,26.75
2023-03-25T19:52:05.169Z,20.78
2023-03-25T19:54:32.082Z,18.77
2023-03-25T19:55:45.391Z,17.58
2023-03-25T19:58:12.406Z,21.85
2023-03-25T20:00:38.135Z,17.18
2023-03-25T20:03:04.246Z,13.43
2023-03-25T20:05:30.613Z,14.28
2023-03-25T20:06:40.939Z,17.85
2023-03-25T20:09:11.090Z,12.10
2023-03-25T20:11:37.208Z,15.62
2023-03-25T20:12:46.415Z,13.88
2023-03-25T20:13:55.781Z,17.25
2023-03-25T20:16:22.100Z,13.28
2023-03-25T20:17:30.945Z,15.83
2023-03-25T20:18:41.993Z,12.63
2023-03-25T20:19:51.447Z,12.37
2023-03-25T20:21:01.041Z,12.10
2023-03-25T20:23:24.822Z,10.92
2023-03-25T20:26:09.170Z,8.62
2023-03-25T20:28:35.518Z,9.68
2023-03-25T20:30:59.529Z,12.07
2023-03-25T20:32:09.305Z,17.38
2023-03-25T20:34:35.217Z,13.67
2023-03-25T20:37:04.020Z,11.93
2023-03-25T20:39:26.056Z,20.10
2023-03-25T20:41:52.673Z,16.05
2023-03-25T20:44:17.281Z,11.00
2023-03-25T20:46:44.729Z,9.47
2023-03-25T20:49:10.693Z,8.33
2023-03-25T20:50:26.675Z,10.73
2023-03-25T20:52:56.012Z,26.23
2023-03-25T20:55:39.837Z,13.65
2023-03-25T20:58:08.723Z,15.52
2023-03-25T20:59:20.119Z,13.82
2023-03-25T21:01:48.567Z,13.57
2023-03-25T21:04:14.056Z,8.50
2023-03-25T21:05:23.754Z,12.60
2023-03-25T21:07:49.974Z,14.05
2023-03-25T21:10:14.150Z,10.03
2023-03-25T21:11:23.363Z,12.13
2023-03-25T21:12:43.134Z,10.30
2023-03-25T21:14:59.436Z,10.05
2023-03-25T21:16:09.034Z,10.47
2023-03-25T21:18:33.422Z,12.43
2023-03-25T21:19:42.583Z,11.40
2023-03-25T21:22:13.200Z,10.12
2023-03-25T21:23:32.531Z,13.85
2023-03-25T21:26:00.026Z,10.38
2023-03-25T21:28:28.599Z,10.45
2023-03-25T21:29:38.217Z,9.75
2023-03-25T21:32:04.056Z,17.45
2023-03-25T21:34:31.341Z,9.73
2023-03-25T21:36:56.184Z,16.47
2023-03-25T21:39:23.794Z,9.52
2023-03-25T21:41:49.744Z,10.97
2023-03-25T21:42:58.851Z,11.48
2023-03-25T21:44:09.134Z,12.68
2023-03-25T21:46:36.549Z,10.75
2023-03-25T21:49:08.355Z,12.62
2023-03-25T21:51:30.035Z,10.35
2023-03-25T21:53:59.316Z,9.97
2023-03-25T21:56:34.106Z,8.90
2023-03-25T21:59:04.053Z,8.95
2023-03-25T22:00:16.761Z,8.78
2023-03-25T22:01:30.190Z,9.57
2023-03-25T22:04:01.724Z,10.10
2023-03-25T22:06:33.670Z,10.22
2023-03-25T22:08:59.202Z,14.75
2023-03-25T22:11:31.032Z,10.68
2023-03-25T22:12:42.095Z,9.50
2023-03-25T22:15:10.377Z,9.17
2023-03-25T22:16:21.365Z,11.15
2023-03-25T22:17:31.456Z,9.10
2023-03-25T22:19:57.593Z,6.73
2023-03-25T22:21:16.318Z,11.03
2023-03-25T22:23:41.687Z,14.78
2023-03-25T22:26:07.696Z,7.78
2023-03-25T22:28:39.484Z,10.18
2023-03-25T22:32:28.041Z,10.80
2023-03-25T22:33:38.758Z,10.50
2023-03-25T22:36:13.455Z,10.13
2023-03-25T22:38:50.325Z,10.13
2023-03-25T22:41:16.507Z,6.87
2023-03-25T22:43:43.586Z,10.33
2023-03-25T22:46:09.995Z,9.58
2023-03-25T22:48:40.241Z,8.93
2023-03-25T22:49:49.877Z,6.47
2023-03-25T22:51:00.545Z,7.70
2023-03-25T22:53:26.011Z,9.47
2023-03-25T22:54:35.177Z,6.15
2023-03-25T22:55:52.075Z,6.82
2023-03-25T22:58:16.749Z,8.37
2023-03-25T22:59:26.178Z,7.13
2023-03-25T23:01:51.133Z,9.43
2023-03-25T23:04:16.697Z,9.67
2023-03-25T23:06:45.261Z,8.85
2023-03-25T23:09:11.694Z,8.35
2023-03-25T23:10:21.444Z,11.07
2023-03-25T23:12:46.757Z,11.92
2023-03-25T23:15:16.256Z,9.53
2023-03-25T23:17:47.819Z,12.48
2023-03-25T23:20:13.638Z,9.48
2023-03-25T23:23:02.112Z,11.95
2023-03-25T23:24:11.414Z,7.77
2023-03-25T23:26:38.602Z,11.38
2023-03-25T23:27:50.332Z,9.10
2023-03-25T23:30:15.597Z,9.78
2023-03-25T23:31:27.402Z,6.23
2023-03-25T23:33:52.516Z,8.45
2023-03-25T23:35:02.617Z,10.32
2023-03-25T23:36:14.133Z,8.80
2023-03-25T23:37:23.226Z,11.22
2023-03-25T23:38:33.963Z,11.73
2023-03-25T23:41:12.125Z,10.82
2023-03-25T23:43:39.731Z,11.25
2023-03-25T23:44:49.069Z,9.70
2023-03-25T23:45:59.468Z,10.12
2023-03-25T23:48:19.148Z,9.70
2023-03-25T23:50:50.893Z,7.80
2023-03-25T23:53:15.640Z,8.07
2023-03-25T23:55:46.451Z,11.02
2023-03-25T23:58:13.690Z,9.57
